Preview of NWS' New Version of Forecast
This preview is not operational and should not be used for support decisions.

Terminal Aerodrome Forecast (TAF)

Issued by National Weather Service (NWS)

                            
000
FTUS43 KDMX 171733
TAFALO
TAF
KALO 171733Z 1718/1818 27017G28KT 2SM -TSRA SCT025CB OVC040
     FM171900 02012KT P6SM VCTS BKN040CB
     FM172100 16013KT P6SM BKN110
     FM180900 18013KT P6SM VCTS BKN040CB BKN200
     FM181300 20010G18KT P6SM BKN120=